sensor_id;sensor_type;location;lat;lon;timestamp;P1;durP1;ratioP1;P2;durP2;ratioP2
4744;SDS011;2386;42.138;24.746;2022-11-13T00:01:22;12.07;;;5.60;;
4744;SDS011;2386;42.138;24.746;2022-11-13T00:03:49;11.40;;;5.60;;
4744;SDS011;2386;42.138;24.746;2022-11-13T00:06:15;11.53;;;5.70;;
4744;SDS011;2386;42.138;24.746;2022-11-13T00:08:41;10.10;;;5.70;;
4744;SDS011;2386;42.138;24.746;2022-11-13T00:13:34;12.33;;;5.73;;
4744;SDS011;2386;42.138;24.746;2022-11-13T00:16:00;16.63;;;6.23;;
4744;SDS011;2386;42.138;24.746;2022-11-13T00:18:28;10.27;;;5.67;;
4744;SDS011;2386;42.138;24.746;2022-11-13T00:20:54;11.60;;;5.57;;
4744;SDS011;2386;42.138;24.746;2022-11-13T00:23:21;15.30;;;6.00;;
4744;SDS011;2386;42.138;24.746;2022-11-13T00:25:46;10.23;;;5.50;;
4744;SDS011;2386;42.138;24.746;2022-11-13T00:28:12;11.30;;;5.77;;
4744;SDS011;2386;42.138;24.746;2022-11-13T00:30:37;11.60;;;6.03;;
4744;SDS011;2386;42.138;24.746;2022-11-13T00:33:02;11.83;;;5.90;;
4744;SDS011;2386;42.138;24.746;2022-11-13T00:35:28;10.90;;;5.50;;
4744;SDS011;2386;42.138;24.746;2022-11-13T00:37:53;9.83;;;5.80;;
4744;SDS011;2386;42.138;24.746;2022-11-13T00:40:19;11.13;;;6.07;;
4744;SDS011;2386;42.138;24.746;2022-11-13T00:42:44;10.43;;;5.77;;
4744;SDS011;2386;42.138;24.746;2022-11-13T00:45:09;14.83;;;6.43;;
4744;SDS011;2386;42.138;24.746;2022-11-13T00:47:35;13.67;;;6.10;;
4744;SDS011;2386;42.138;24.746;2022-11-13T00:50:00;12.63;;;6.37;;
4744;SDS011;2386;42.138;24.746;2022-11-13T00:52:26;11.97;;;6.40;;
4744;SDS011;2386;42.138;24.746;2022-11-13T00:54:52;10.70;;;5.67;;
4744;SDS011;2386;42.138;24.746;2022-11-13T00:57:17;16.03;;;6.83;;
4744;SDS011;2386;42.138;24.746;2022-11-13T00:59:42;17.30;;;6.97;;
4744;SDS011;2386;42.138;24.746;2022-11-13T01:02:08;12.00;;;6.33;;
4744;SDS011;2386;42.138;24.746;2022-11-13T01:04:34;12.40;;;6.33;;
4744;SDS011;2386;42.138;24.746;2022-11-13T01:06:59;12.60;;;6.53;;
4744;SDS011;2386;42.138;24.746;2022-11-13T01:09:25;12.83;;;6.67;;
4744;SDS011;2386;42.138;24.746;2022-11-13T01:11:50;13.00;;;6.90;;
4744;SDS011;2386;42.138;24.746;2022-11-13T01:14:15;10.93;;;6.50;;
4744;SDS011;2386;42.138;24.746;2022-11-13T01:16:41;12.20;;;6.57;;
4744;SDS011;2386;42.138;24.746;2022-11-13T01:19:06;14.43;;;6.73;;
4744;SDS011;2386;42.138;24.746;2022-11-13T01:21:31;14.27;;;6.87;;
4744;SDS011;2386;42.138;24.746;2022-11-13T01:23:57;15.53;;;8.03;;
4744;SDS011;2386;42.138;24.746;2022-11-13T01:26:24;19.63;;;7.40;;
4744;SDS011;2386;42.138;24.746;2022-11-13T01:28:51;12.30;;;6.80;;
4744;SDS011;2386;42.138;24.746;2022-11-13T01:31:19;15.70;;;7.40;;
4744;SDS011;2386;42.138;24.746;2022-11-13T01:33:48;13.43;;;7.23;;
4744;SDS011;2386;42.138;24.746;2022-11-13T01:36:20;16.63;;;8.20;;
4744;SDS011;2386;42.138;24.746;2022-11-13T01:38:48;15.90;;;8.13;;
4744;SDS011;2386;42.138;24.746;2022-11-13T01:41:16;18.37;;;8.10;;
4744;SDS011;2386;42.138;24.746;2022-11-13T01:43:43;18.27;;;8.80;;
4744;SDS011;2386;42.138;24.746;2022-11-13T01:46:15;20.57;;;7.97;;
4744;SDS011;2386;42.138;24.746;2022-11-13T01:48:44;19.70;;;9.73;;
4744;SDS011;2386;42.138;24.746;2022-11-13T01:51:12;23.77;;;8.40;;
4744;SDS011;2386;42.138;24.746;2022-11-13T01:53:42;15.83;;;7.43;;
4744;SDS011;2386;42.138;24.746;2022-11-13T01:56:11;20.87;;;8.60;;
4744;SDS011;2386;42.138;24.746;2022-11-13T01:58:38;16.93;;;8.13;;
4744;SDS011;2386;42.138;24.746;2022-11-13T02:01:06;16.37;;;7.97;;
4744;SDS011;2386;42.138;24.746;2022-11-13T02:03:32;16.93;;;7.63;;
4744;SDS011;2386;42.138;24.746;2022-11-13T02:05:58;17.70;;;7.57;;
4744;SDS011;2386;42.138;24.746;2022-11-13T02:08:23;17.43;;;7.33;;
4744;SDS011;2386;42.138;24.746;2022-11-13T02:10:49;15.60;;;7.90;;
4744;SDS011;2386;42.138;24.746;2022-11-13T02:13:14;13.33;;;6.60;;
4744;SDS011;2386;42.138;24.746;2022-11-13T02:15:40;18.13;;;8.27;;
4744;SDS011;2386;42.138;24.746;2022-11-13T02:18:07;20.60;;;7.53;;
4744;SDS011;2386;42.138;24.746;2022-11-13T02:26:09;16.47;;;8.27;;
4744;SDS011;2386;42.138;24.746;2022-11-13T02:28:37;18.80;;;8.80;;
4744;SDS011;2386;42.138;24.746;2022-11-13T02:31:06;17.43;;;8.07;;
4744;SDS011;2386;42.138;24.746;2022-11-13T02:33:33;13.50;;;8.00;;
4744;SDS011;2386;42.138;24.746;2022-11-13T02:35:58;16.57;;;7.80;;
4744;SDS011;2386;42.138;24.746;2022-11-13T02:38:24;18.03;;;8.43;;
4744;SDS011;2386;42.138;24.746;2022-11-13T02:40:49;17.63;;;8.27;;
4744;SDS011;2386;42.138;24.746;2022-11-13T02:43:15;19.93;;;8.40;;
4744;SDS011;2386;42.138;24.746;2022-11-13T02:45:40;15.00;;;8.03;;
4744;SDS011;2386;42.138;24.746;2022-11-13T02:48:06;15.20;;;8.40;;
4744;SDS011;2386;42.138;24.746;2022-11-13T02:50:32;15.33;;;8.30;;
4744;SDS011;2386;42.138;24.746;2022-11-13T02:52:58;13.80;;;7.90;;
4744;SDS011;2386;42.138;24.746;2022-11-13T02:55:23;13.67;;;8.10;;
4744;SDS011;2386;42.138;24.746;2022-11-13T02:57:49;13.77;;;8.13;;
4744;SDS011;2386;42.138;24.746;2022-11-13T03:00:14;13.90;;;7.77;;
4744;SDS011;2386;42.138;24.746;2022-11-13T03:02:40;16.83;;;7.90;;
4744;SDS011;2386;42.138;24.746;2022-11-13T03:05:05;17.20;;;8.13;;
4744;SDS011;2386;42.138;24.746;2022-11-13T03:07:32;14.40;;;8.60;;
4744;SDS011;2386;42.138;24.746;2022-11-13T03:09:57;21.60;;;9.20;;
4744;SDS011;2386;42.138;24.746;2022-11-13T03:12:22;13.27;;;7.53;;
4744;SDS011;2386;42.138;24.746;2022-11-13T03:14:48;11.33;;;7.60;;
4744;SDS011;2386;42.138;24.746;2022-11-13T03:17:13;10.07;;;7.27;;
4744;SDS011;2386;42.138;24.746;2022-11-13T03:19:39;14.67;;;8.17;;
4744;SDS011;2386;42.138;24.746;2022-11-13T03:22:04;15.30;;;8.77;;
4744;SDS011;2386;42.138;24.746;2022-11-13T03:24:29;14.40;;;7.93;;
4744;SDS011;2386;42.138;24.746;2022-11-13T03:26:55;13.73;;;7.83;;
4744;SDS011;2386;42.138;24.746;2022-11-13T03:29:20;14.20;;;8.27;;
4744;SDS011;2386;42.138;24.746;2022-11-13T03:31:45;12.00;;;8.13;;
4744;SDS011;2386;42.138;24.746;2022-11-13T03:34:11;13.37;;;7.83;;
4744;SDS011;2386;42.138;24.746;2022-11-13T03:36:36;14.17;;;8.20;;
4744;SDS011;2386;42.138;24.746;2022-11-13T03:39:02;14.57;;;8.47;;
4744;SDS011;2386;42.138;24.746;2022-11-13T03:41:27;17.50;;;8.83;;
4744;SDS011;2386;42.138;24.746;2022-11-13T03:43:53;14.30;;;9.07;;
4744;SDS011;2386;42.138;24.746;2022-11-13T03:46:18;16.47;;;9.30;;
4744;SDS011;2386;42.138;24.746;2022-11-13T03:48:44;12.83;;;8.03;;
4744;SDS011;2386;42.138;24.746;2022-11-13T03:51:09;11.67;;;7.73;;
4744;SDS011;2386;42.138;24.746;2022-11-13T03:53:34;14.23;;;8.30;;
4744;SDS011;2386;42.138;24.746;2022-11-13T03:56:00;14.93;;;9.43;;
4744;SDS011;2386;42.138;24.746;2022-11-13T03:58:25;16.70;;;9.40;;
4744;SDS011;2386;42.138;24.746;2022-11-13T04:00:52;15.67;;;9.40;;
4744;SDS011;2386;42.138;24.746;2022-11-13T04:03:19;13.80;;;8.87;;
4744;SDS011;2386;42.138;24.746;2022-11-13T04:05:46;14.77;;;8.23;;
4744;SDS011;2386;42.138;24.746;2022-11-13T04:08:15;15.03;;;8.73;;
4744;SDS011;2386;42.138;24.746;2022-11-13T04:10:43;14.60;;;8.90;;
4744;SDS011;2386;42.138;24.746;2022-11-13T04:13:10;17.43;;;10.63;;
4744;SDS011;2386;42.138;24.746;2022-11-13T04:15:35;14.73;;;9.27;;
4744;SDS011;2386;42.138;24.746;2022-11-13T04:18:01;17.20;;;10.17;;
4744;SDS011;2386;42.138;24.746;2022-11-13T04:20:26;19.90;;;10.33;;
4744;SDS011;2386;42.138;24.746;2022-11-13T04:22:52;14.70;;;8.03;;
4744;SDS011;2386;42.138;24.746;2022-11-13T04:25:20;16.27;;;9.23;;
4744;SDS011;2386;42.138;24.746;2022-11-13T04:27:47;17.87;;;9.73;;
4744;SDS011;2386;42.138;24.746;2022-11-13T04:30:13;17.00;;;9.90;;
4744;SDS011;2386;42.138;24.746;2022-11-13T04:32:39;21.00;;;9.97;;
4744;SDS011;2386;42.138;24.746;2022-11-13T04:35:05;21.73;;;11.03;;
4744;SDS011;2386;42.138;24.746;2022-11-13T04:37:31;15.27;;;10.20;;
4744;SDS011;2386;42.138;24.746;2022-11-13T04:39:56;17.80;;;10.17;;
4744;SDS011;2386;42.138;24.746;2022-11-13T04:42:22;18.37;;;9.20;;
4744;SDS011;2386;42.138;24.746;2022-11-13T04:45:06;18.03;;;9.53;;
4744;SDS011;2386;42.138;24.746;2022-11-13T04:47:32;13.23;;;8.80;;
4744;SDS011;2386;42.138;24.746;2022-11-13T04:49:57;19.50;;;10.67;;
4744;SDS011;2386;42.138;24.746;2022-11-13T04:52:23;16.70;;;9.80;;
4744;SDS011;2386;42.138;24.746;2022-11-13T04:54:48;16.83;;;9.70;;
4744;SDS011;2386;42.138;24.746;2022-11-13T04:57:13;18.80;;;11.10;;
4744;SDS011;2386;42.138;24.746;2022-11-13T04:59:39;17.17;;;9.80;;
4744;SDS011;2386;42.138;24.746;2022-11-13T05:02:04;21.37;;;10.87;;
4744;SDS011;2386;42.138;24.746;2022-11-13T05:04:30;19.40;;;10.93;;
4744;SDS011;2386;42.138;24.746;2022-11-13T05:06:55;14.77;;;9.87;;
4744;SDS011;2386;42.138;24.746;2022-11-13T05:09:20;15.50;;;9.97;;
4744;SDS011;2386;42.138;24.746;2022-11-13T05:11:46;17.00;;;10.73;;
4744;SDS011;2386;42.138;24.746;2022-11-13T05:14:11;17.30;;;9.80;;
4744;SDS011;2386;42.138;24.746;2022-11-13T05:16:37;17.20;;;10.00;;
4744;SDS011;2386;42.138;24.746;2022-11-13T05:19:03;17.17;;;10.30;;
4744;SDS011;2386;42.138;24.746;2022-11-13T05:21:35;16.50;;;10.73;;
4744;SDS011;2386;42.138;24.746;2022-11-13T05:24:03;17.40;;;10.10;;
4744;SDS011;2386;42.138;24.746;2022-11-13T05:26:29;15.57;;;9.63;;
4744;SDS011;2386;42.138;24.746;2022-11-13T05:28:57;17.33;;;10.13;;
4744;SDS011;2386;42.138;24.746;2022-11-13T05:31:24;15.57;;;8.80;;
4744;SDS011;2386;42.138;24.746;2022-11-13T05:33:50;23.60;;;11.13;;
4744;SDS011;2386;42.138;24.746;2022-11-13T05:36:16;17.97;;;10.07;;
4744;SDS011;2386;42.138;24.746;2022-11-13T05:38:43;19.07;;;9.77;;
4744;SDS011;2386;42.138;24.746;2022-11-13T05:41:19;17.57;;;10.60;;
4744;SDS011;2386;42.138;24.746;2022-11-13T05:43:45;24.67;;;12.53;;
4744;SDS011;2386;42.138;24.746;2022-11-13T05:46:16;20.20;;;11.67;;
4744;SDS011;2386;42.138;24.746;2022-11-13T05:48:43;19.97;;;11.60;;
4744;SDS011;2386;42.138;24.746;2022-11-13T05:51:13;19.10;;;11.20;;
4744;SDS011;2386;42.138;24.746;2022-11-13T05:53:40;22.17;;;12.53;;
4744;SDS011;2386;42.138;24.746;2022-11-13T05:56:08;19.57;;;11.40;;
4744;SDS011;2386;42.138;24.746;2022-11-13T05:58:35;20.37;;;12.80;;
4744;SDS011;2386;42.138;24.746;2022-11-13T06:01:14;21.03;;;12.63;;
4744;SDS011;2386;42.138;24.746;2022-11-13T06:03:43;18.30;;;11.83;;
4744;SDS011;2386;42.138;24.746;2022-11-13T06:06:10;17.47;;;10.40;;
4744;SDS011;2386;42.138;24.746;2022-11-13T06:08:38;17.83;;;11.17;;
4744;SDS011;2386;42.138;24.746;2022-11-13T06:11:05;26.80;;;12.10;;
4744;SDS011;2386;42.138;24.746;2022-11-13T06:13:32;19.90;;;12.07;;
4744;SDS011;2386;42.138;24.746;2022-11-13T06:16:05;22.83;;;11.80;;
4744;SDS011;2386;42.138;24.746;2022-11-13T06:18:33;19.37;;;11.10;;
4744;SDS011;2386;42.138;24.746;2022-11-13T06:21:03;22.43;;;12.07;;
4744;SDS011;2386;42.138;24.746;2022-11-13T06:23:32;23.30;;;13.47;;
4744;SDS011;2386;42.138;24.746;2022-11-13T06:26:00;24.63;;;15.03;;
4744;SDS011;2386;42.138;24.746;2022-11-13T06:28:29;28.27;;;15.37;;
4744;SDS011;2386;42.138;24.746;2022-11-13T06:30:55;24.83;;;14.27;;
4744;SDS011;2386;42.138;24.746;2022-11-13T06:33:20;27.17;;;15.20;;
4744;SDS011;2386;42.138;24.746;2022-11-13T06:35:45;24.97;;;15.40;;
4744;SDS011;2386;42.138;24.746;2022-11-13T06:38:11;32.10;;;15.40;;
4744;SDS011;2386;42.138;24.746;2022-11-13T06:40:37;23.27;;;14.53;;
4744;SDS011;2386;42.138;24.746;2022-11-13T06:43:03;24.43;;;14.57;;
4744;SDS011;2386;42.138;24.746;2022-11-13T06:45:28;34.43;;;14.00;;
4744;SDS011;2386;42.138;24.746;2022-11-13T06:47:54;27.17;;;14.70;;
4744;SDS011;2386;42.138;24.746;2022-11-13T06:50:19;23.50;;;12.87;;
4744;SDS011;2386;42.138;24.746;2022-11-13T06:52:45;25.13;;;13.40;;
4744;SDS011;2386;42.138;24.746;2022-11-13T06:55:10;22.50;;;13.57;;
4744;SDS011;2386;42.138;24.746;2022-11-13T06:57:35;23.27;;;12.40;;
4744;SDS011;2386;42.138;24.746;2022-11-13T07:00:01;21.47;;;13.00;;
4744;SDS011;2386;42.138;24.746;2022-11-13T07:02:26;17.83;;;11.60;;
4744;SDS011;2386;42.138;24.746;2022-11-13T07:04:52;20.33;;;12.53;;
4744;SDS011;2386;42.138;24.746;2022-11-13T07:07:17;16.20;;;10.80;;
4744;SDS011;2386;42.138;24.746;2022-11-13T07:09:42;20.43;;;12.00;;
4744;SDS011;2386;42.138;24.746;2022-11-13T07:12:08;16.40;;;10.70;;
4744;SDS011;2386;42.138;24.746;2022-11-13T07:14:33;13.77;;;10.83;;
4744;SDS011;2386;42.138;24.746;2022-11-13T07:16:58;17.20;;;11.20;;
4744;SDS011;2386;42.138;24.746;2022-11-13T07:19:24;14.40;;;10.63;;
4744;SDS011;2386;42.138;24.746;2022-11-13T07:21:49;13.40;;;9.97;;
4744;SDS011;2386;42.138;24.746;2022-11-13T07:24:15;14.27;;;10.50;;
4744;SDS011;2386;42.138;24.746;2022-11-13T07:26:40;15.70;;;10.23;;
4744;SDS011;2386;42.138;24.746;2022-11-13T07:29:05;20.60;;;10.90;;
4744;SDS011;2386;42.138;24.746;2022-11-13T07:31:31;21.17;;;11.73;;
4744;SDS011;2386;42.138;24.746;2022-11-13T07:33:56;16.30;;;10.10;;
4744;SDS011;2386;42.138;24.746;2022-11-13T07:36:22;15.00;;;9.87;;
4744;SDS011;2386;42.138;24.746;2022-11-13T07:38:47;13.13;;;9.27;;
4744;SDS011;2386;42.138;24.746;2022-11-13T07:41:12;14.53;;;9.90;;
4744;SDS011;2386;42.138;24.746;2022-11-13T07:43:38;14.90;;;9.43;;
4744;SDS011;2386;42.138;24.746;2022-11-13T07:46:03;17.27;;;10.77;;
4744;SDS011;2386;42.138;24.746;2022-11-13T07:48:29;16.20;;;11.03;;
4744;SDS011;2386;42.138;24.746;2022-11-13T07:50:54;16.00;;;10.40;;
4744;SDS011;2386;42.138;24.746;2022-11-13T07:53:24;16.53;;;10.97;;
4744;SDS011;2386;42.138;24.746;2022-11-13T07:55:49;19.33;;;12.93;;
4744;SDS011;2386;42.138;24.746;2022-11-13T07:58:14;16.10;;;11.37;;
4744;SDS011;2386;42.138;24.746;2022-11-13T08:00:40;22.50;;;11.63;;
4744;SDS011;2386;42.138;24.746;2022-11-13T08:03:11;24.13;;;12.63;;
4744;SDS011;2386;42.138;24.746;2022-11-13T08:05:38;29.57;;;18.33;;
4744;SDS011;2386;42.138;24.746;2022-11-13T08:08:04;28.63;;;15.67;;
4744;SDS011;2386;42.138;24.746;2022-11-13T08:10:29;29.13;;;15.07;;
4744;SDS011;2386;42.138;24.746;2022-11-13T08:13:02;26.47;;;16.17;;
4744;SDS011;2386;42.138;24.746;2022-11-13T08:15:31;25.47;;;14.37;;
4744;SDS011;2386;42.138;24.746;2022-11-13T08:17:58;21.47;;;14.40;;
4744;SDS011;2386;42.138;24.746;2022-11-13T08:20:25;29.37;;;16.03;;
4744;SDS011;2386;42.138;24.746;2022-11-13T08:22:54;24.43;;;14.80;;
4744;SDS011;2386;42.138;24.746;2022-11-13T08:25:21;24.17;;;16.10;;
4744;SDS011;2386;42.138;24.746;2022-11-13T08:27:46;29.60;;;15.90;;
4744;SDS011;2386;42.138;24.746;2022-11-13T08:30:12;22.90;;;15.50;;
4744;SDS011;2386;42.138;24.746;2022-11-13T08:32:38;29.47;;;17.83;;
4744;SDS011;2386;42.138;24.746;2022-11-13T08:35:03;29.47;;;18.20;;
4744;SDS011;2386;42.138;24.746;2022-11-13T08:37:29;30.37;;;18.23;;
4744;SDS011;2386;42.138;24.746;2022-11-13T08:39:54;31.20;;;19.60;;
4744;SDS011;2386;42.138;24.746;2022-11-13T08:42:20;43.17;;;26.87;;
4744;SDS011;2386;42.138;24.746;2022-11-13T08:44:45;38.90;;;21.40;;
4744;SDS011;2386;42.138;24.746;2022-11-13T08:47:10;39.27;;;21.37;;
4744;SDS011;2386;42.138;24.746;2022-11-13T08:49:36;29.57;;;18.13;;
4744;SDS011;2386;42.138;24.746;2022-11-13T08:52:01;33.90;;;17.80;;
4744;SDS011;2386;42.138;24.746;2022-11-13T08:54:27;29.80;;;16.90;;
4744;SDS011;2386;42.138;24.746;2022-11-13T08:56:52;32.30;;;18.73;;
4744;SDS011;2386;42.138;24.746;2022-11-13T08:59:18;31.43;;;19.37;;
4744;SDS011;2386;42.138;24.746;2022-11-13T09:01:43;27.90;;;17.87;;
4744;SDS011;2386;42.138;24.746;2022-11-13T09:04:08;35.47;;;18.20;;
4744;SDS011;2386;42.138;24.746;2022-11-13T09:06:34;28.30;;;17.40;;
4744;SDS011;2386;42.138;24.746;2022-11-13T09:08:59;28.80;;;18.20;;
4744;SDS011;2386;42.138;24.746;2022-11-13T09:11:25;33.17;;;17.10;;
4744;SDS011;2386;42.138;24.746;2022-11-13T09:13:53;27.20;;;15.53;;
4744;SDS011;2386;42.138;24.746;2022-11-13T09:16:19;27.80;;;15.73;;
4744;SDS011;2386;42.138;24.746;2022-11-13T09:18:47;26.90;;;15.53;;
4744;SDS011;2386;42.138;24.746;2022-11-13T09:21:14;31.57;;;17.83;;
4744;SDS011;2386;42.138;24.746;2022-11-13T09:23:40;27.13;;;17.23;;
4744;SDS011;2386;42.138;24.746;2022-11-13T09:26:05;25.83;;;17.03;;
4744;SDS011;2386;42.138;24.746;2022-11-13T09:28:31;26.63;;;17.33;;
4744;SDS011;2386;42.138;24.746;2022-11-13T09:30:57;28.20;;;17.37;;
4744;SDS011;2386;42.138;24.746;2022-11-13T09:33:23;30.60;;;17.60;;
4744;SDS011;2386;42.138;24.746;2022-11-13T09:35:49;26.13;;;17.40;;
4744;SDS011;2386;42.138;24.746;2022-11-13T09:38:14;30.80;;;19.20;;
4744;SDS011;2386;42.138;24.746;2022-11-13T09:43:42;33.67;;;22.63;;
4744;SDS011;2386;42.138;24.746;2022-11-13T09:46:19;34.80;;;23.33;;
4744;SDS011;2386;42.138;24.746;2022-11-13T09:51:40;59.37;;;39.73;;
4744;SDS011;2386;42.138;24.746;2022-11-13T09:54:13;34.10;;;22.60;;
4744;SDS011;2386;42.138;24.746;2022-11-13T09:56:40;31.10;;;19.87;;
4744;SDS011;2386;42.138;24.746;2022-11-13T10:01:48;32.47;;;20.00;;
4744;SDS011;2386;42.138;24.746;2022-11-13T10:04:16;27.53;;;18.27;;
4744;SDS011;2386;42.138;24.746;2022-11-13T10:09:49;33.97;;;18.00;;
4744;SDS011;2386;42.138;24.746;2022-11-13T10:12:26;29.00;;;16.87;;
4744;SDS011;2386;42.138;24.746;2022-11-13T10:14:54;30.07;;;17.60;;
4744;SDS011;2386;42.138;24.746;2022-11-13T10:17:27;28.83;;;15.83;;
4744;SDS011;2386;42.138;24.746;2022-11-13T10:19:58;32.40;;;17.37;;
4744;SDS011;2386;42.138;24.746;2022-11-13T10:25:08;26.77;;;15.53;;
4744;SDS011;2386;42.138;24.746;2022-11-13T10:27:37;28.43;;;17.27;;
4744;SDS011;2386;42.138;24.746;2022-11-13T10:33:24;26.60;;;15.20;;
4744;SDS011;2386;42.138;24.746;2022-11-13T10:38:57;25.37;;;15.70;;
4744;SDS011;2386;42.138;24.746;2022-11-13T10:41:27;28.30;;;17.00;;
4744;SDS011;2386;42.138;24.746;2022-11-13T10:43:58;28.30;;;16.07;;
4744;SDS011;2386;42.138;24.746;2022-11-13T10:46:33;25.23;;;15.73;;
4744;SDS011;2386;42.138;24.746;2022-11-13T10:49:09;26.80;;;16.50;;
4744;SDS011;2386;42.138;24.746;2022-11-13T10:51:36;24.77;;;15.77;;
4744;SDS011;2386;42.138;24.746;2022-11-13T10:54:18;30.13;;;18.93;;
4744;SDS011;2386;42.138;24.746;2022-11-13T10:56:44;30.27;;;16.90;;
4744;SDS011;2386;42.138;24.746;2022-11-13T10:59:24;28.07;;;15.23;;
4744;SDS011;2386;42.138;24.746;2022-11-13T11:01:50;24.30;;;14.70;;
4744;SDS011;2386;42.138;24.746;2022-11-13T11:04:23;28.20;;;16.50;;
4744;SDS011;2386;42.138;24.746;2022-11-13T11:06:53;27.20;;;16.93;;
4744;SDS011;2386;42.138;24.746;2022-11-13T11:09:22;27.20;;;16.97;;
4744;SDS011;2386;42.138;24.746;2022-11-13T11:14:52;21.60;;;14.00;;
4744;SDS011;2386;42.138;24.746;2022-11-13T11:22:45;30.10;;;17.43;;
4744;SDS011;2386;42.138;24.746;2022-11-13T11:25:16;26.50;;;16.90;;
4744;SDS011;2386;42.138;24.746;2022-11-13T11:28:04;26.63;;;16.57;;
4744;SDS011;2386;42.138;24.746;2022-11-13T11:30:33;29.83;;;16.80;;
4744;SDS011;2386;42.138;24.746;2022-11-13T11:38:15;28.40;;;17.70;;
4744;SDS011;2386;42.138;24.746;2022-11-13T11:40:55;29.80;;;17.53;;
4744;SDS011;2386;42.138;24.746;2022-11-13T11:46:09;24.70;;;16.57;;
4744;SDS011;2386;42.138;24.746;2022-11-13T11:48:36;24.53;;;16.00;;
4744;SDS011;2386;42.138;24.746;2022-11-13T12:10:27;27.57;;;16.97;;
4744;SDS011;2386;42.138;24.746;2022-11-13T12:15:35;37.17;;;19.50;;
4744;SDS011;2386;42.138;24.746;2022-11-13T12:26:05;34.70;;;18.63;;
4744;SDS011;2386;42.138;24.746;2022-11-13T12:34:18;33.40;;;20.07;;
4744;SDS011;2386;42.138;24.746;2022-11-13T12:37:01;38.50;;;19.60;;
4744;SDS011;2386;42.138;24.746;2022-11-13T12:44:55;33.70;;;18.40;;
4744;SDS011;2386;42.138;24.746;2022-11-13T12:47:36;33.87;;;19.20;;
4744;SDS011;2386;42.138;24.746;2022-11-13T12:50:24;33.63;;;19.57;;
4744;SDS011;2386;42.138;24.746;2022-11-13T12:53:01;28.23;;;18.00;;
4744;SDS011;2386;42.138;24.746;2022-11-13T12:55:32;33.10;;;19.40;;
4744;SDS011;2386;42.138;24.746;2022-11-13T13:00:30;32.93;;;19.23;;
4744;SDS011;2386;42.138;24.746;2022-11-13T13:14:00;37.47;;;20.87;;
4744;SDS011;2386;42.138;24.746;2022-11-13T13:16:41;34.90;;;21.13;;
4744;SDS011;2386;42.138;24.746;2022-11-13T13:19:07;36.13;;;23.57;;
4744;SDS011;2386;42.138;24.746;2022-11-13T13:21:46;26.30;;;17.00;;
4744;SDS011;2386;42.138;24.746;2022-11-13T13:24:28;30.30;;;18.27;;
4744;SDS011;2386;42.138;24.746;2022-11-13T13:26:59;34.30;;;19.43;;
4744;SDS011;2386;42.138;24.746;2022-11-13T13:29:25;37.00;;;21.80;;
4744;SDS011;2386;42.138;24.746;2022-11-13T13:37:12;40.40;;;21.27;;
4744;SDS011;2386;42.138;24.746;2022-11-13T13:42:36;30.00;;;20.37;;
4744;SDS011;2386;42.138;24.746;2022-11-13T13:47:59;31.57;;;19.60;;
4744;SDS011;2386;42.138;24.746;2022-11-13T13:50:39;30.57;;;18.07;;
4744;SDS011;2386;42.138;24.746;2022-11-13T13:53:10;34.07;;;20.00;;
4744;SDS011;2386;42.138;24.746;2022-11-13T13:55:43;31.87;;;19.80;;
4744;SDS011;2386;42.138;24.746;2022-11-13T13:58:13;43.80;;;21.43;;
4744;SDS011;2386;42.138;24.746;2022-11-13T14:00:41;35.93;;;21.67;;
4744;SDS011;2386;42.138;24.746;2022-11-13T14:03:20;32.70;;;19.97;;
4744;SDS011;2386;42.138;24.746;2022-11-13T14:05:46;30.00;;;19.00;;
4744;SDS011;2386;42.138;24.746;2022-11-13T14:08:16;37.37;;;22.60;;
4744;SDS011;2386;42.138;24.746;2022-11-13T14:10:46;34.20;;;20.70;;
4744;SDS011;2386;42.138;24.746;2022-11-13T14:13:22;34.37;;;20.83;;
4744;SDS011;2386;42.138;24.746;2022-11-13T14:15:58;42.23;;;21.47;;
4744;SDS011;2386;42.138;24.746;2022-11-13T14:18:28;37.63;;;19.63;;
4744;SDS011;2386;42.138;24.746;2022-11-13T14:20:54;31.73;;;20.20;;
4744;SDS011;2386;42.138;24.746;2022-11-13T14:23:26;38.37;;;20.03;;
4744;SDS011;2386;42.138;24.746;2022-11-13T14:25:53;39.47;;;21.70;;
4744;SDS011;2386;42.138;24.746;2022-11-13T14:28:21;33.40;;;21.33;;
4744;SDS011;2386;42.138;24.746;2022-11-13T14:30:56;35.27;;;21.60;;
4744;SDS011;2386;42.138;24.746;2022-11-13T14:33:30;38.00;;;21.63;;
4744;SDS011;2386;42.138;24.746;2022-11-13T14:35:58;44.90;;;22.00;;
4744;SDS011;2386;42.138;24.746;2022-11-13T14:38:25;32.83;;;20.93;;
4744;SDS011;2386;42.138;24.746;2022-11-13T14:40:54;47.77;;;23.70;;
4744;SDS011;2386;42.138;24.746;2022-11-13T14:43:21;33.07;;;20.40;;
4744;SDS011;2386;42.138;24.746;2022-11-13T14:45:53;38.73;;;20.93;;
4744;SDS011;2386;42.138;24.746;2022-11-13T14:48:27;39.17;;;21.97;;
4744;SDS011;2386;42.138;24.746;2022-11-13T14:51:01;43.90;;;22.60;;
4744;SDS011;2386;42.138;24.746;2022-11-13T14:53:33;45.63;;;22.00;;
4744;SDS011;2386;42.138;24.746;2022-11-13T14:56:04;45.40;;;22.87;;
4744;SDS011;2386;42.138;24.746;2022-11-13T14:58:43;43.23;;;20.60;;
4744;SDS011;2386;42.138;24.746;2022-11-13T15:03:36;42.83;;;24.40;;
4744;SDS011;2386;42.138;24.746;2022-11-13T15:06:02;47.67;;;24.23;;
4744;SDS011;2386;42.138;24.746;2022-11-13T15:08:27;39.80;;;24.93;;
4744;SDS011;2386;42.138;24.746;2022-11-13T15:10:53;39.50;;;23.03;;
4744;SDS011;2386;42.138;24.746;2022-11-13T15:13:21;44.00;;;25.30;;
4744;SDS011;2386;42.138;24.746;2022-11-13T15:15:46;42.20;;;24.70;;
4744;SDS011;2386;42.138;24.746;2022-11-13T15:18:14;58.03;;;26.20;;
4744;SDS011;2386;42.138;24.746;2022-11-13T15:20:42;50.33;;;26.40;;
4744;SDS011;2386;42.138;24.746;2022-11-13T15:23:09;56.87;;;25.20;;
4744;SDS011;2386;42.138;24.746;2022-11-13T15:25:38;44.37;;;24.13;;
4744;SDS011;2386;42.138;24.746;2022-11-13T15:28:03;47.00;;;25.97;;
4744;SDS011;2386;42.138;24.746;2022-11-13T15:30:29;45.23;;;25.30;;
4744;SDS011;2386;42.138;24.746;2022-11-13T15:32:54;51.03;;;25.50;;
4744;SDS011;2386;42.138;24.746;2022-11-13T15:35:21;43.03;;;25.77;;
4744;SDS011;2386;42.138;24.746;2022-11-13T15:37:47;42.93;;;25.17;;
4744;SDS011;2386;42.138;24.746;2022-11-13T15:40:12;41.97;;;23.90;;
4744;SDS011;2386;42.138;24.746;2022-11-13T15:42:38;41.10;;;23.30;;
4744;SDS011;2386;42.138;24.746;2022-11-13T15:45:05;38.70;;;21.97;;
4744;SDS011;2386;42.138;24.746;2022-11-13T15:47:32;39.60;;;22.77;;
4744;SDS011;2386;42.138;24.746;2022-11-13T15:49:59;42.73;;;23.20;;
4744;SDS011;2386;42.138;24.746;2022-11-13T15:52:25;40.17;;;23.30;;
4744;SDS011;2386;42.138;24.746;2022-11-13T15:54:54;49.00;;;24.43;;
4744;SDS011;2386;42.138;24.746;2022-11-13T15:57:22;49.93;;;24.97;;
4744;SDS011;2386;42.138;24.746;2022-11-13T15:59:49;38.33;;;22.73;;
4744;SDS011;2386;42.138;24.746;2022-11-13T16:02:14;44.23;;;23.97;;
4744;SDS011;2386;42.138;24.746;2022-11-13T16:04:40;44.53;;;21.97;;
4744;SDS011;2386;42.138;24.746;2022-11-13T16:07:13;48.77;;;26.50;;
4744;SDS011;2386;42.138;24.746;2022-11-13T16:09:41;43.60;;;25.57;;
4744;SDS011;2386;42.138;24.746;2022-11-13T16:12:08;52.57;;;26.03;;
4744;SDS011;2386;42.138;24.746;2022-11-13T16:14:37;60.60;;;26.50;;
4744;SDS011;2386;42.138;24.746;2022-11-13T16:17:16;42.47;;;25.30;;
4744;SDS011;2386;42.138;24.746;2022-11-13T16:19:45;46.27;;;26.00;;
4744;SDS011;2386;42.138;24.746;2022-11-13T16:22:20;46.20;;;26.20;;
4744;SDS011;2386;42.138;24.746;2022-11-13T16:24:47;43.57;;;25.57;;
4744;SDS011;2386;42.138;24.746;2022-11-13T16:27:34;48.93;;;24.70;;
4744;SDS011;2386;42.138;24.746;2022-11-13T16:29:59;39.40;;;22.70;;
4744;SDS011;2386;42.138;24.746;2022-11-13T16:32:26;45.63;;;23.77;;
4744;SDS011;2386;42.138;24.746;2022-11-13T16:34:52;46.10;;;24.40;;